sensor_id;sensor_type;location;lat;lon;timestamp;pressure;altitude;pressure_sealevel;temperature;humidity
46756;BME280;32506;52.826;-1.192;2022-10-31T00:01:55;100805.31;;;12.55;68.67
46756;BME280;32506;52.826;-1.192;2022-10-31T00:04:21;100810.69;;;12.55;68.71
46756;BME280;32506;52.826;-1.192;2022-10-31T00:06:46;100810.09;;;12.53;68.88
46756;BME280;32506;52.826;-1.192;2022-10-31T00:09:12;100807.44;;;12.53;69.17
46756;BME280;32506;52.826;-1.192;2022-10-31T00:11:37;100801.22;;;12.53;69.33
46756;BME280;32506;52.826;-1.192;2022-10-31T00:14:03;100803.09;;;12.52;69.99
46756;BME280;32506;52.826;-1.192;2022-10-31T00:16:29;100811.13;;;12.52;69.86
46756;BME280;32506;52.826;-1.192;2022-10-31T00:19:00;100811.94;;;12.53;70.21
46756;BME280;32506;52.826;-1.192;2022-10-31T00:21:27;100807.66;;;12.52;70.18
46756;BME280;32506;52.826;-1.192;2022-10-31T00:23:54;100811.13;;;12.52;70.13
46756;BME280;32506;52.826;-1.192;2022-10-31T00:26:19;100804.97;;;12.52;70.16
46756;BME280;32506;52.826;-1.192;2022-10-31T00:28:45;100807.66;;;12.52;70.43
46756;BME280;32506;52.826;-1.192;2022-10-31T00:31:12;100809.50;;;12.51;70.15
46756;BME280;32506;52.826;-1.192;2022-10-31T00:33:39;100803.31;;;12.51;70.00
46756;BME280;32506;52.826;-1.192;2022-10-31T00:36:06;100814.84;;;12.51;70.16
46756;BME280;32506;52.826;-1.192;2022-10-31T00:38:32;100813.00;;;12.52;70.21
46756;BME280;32506;52.826;-1.192;2022-10-31T00:40:58;100811.38;;;12.51;70.24
46756;BME280;32506;52.826;-1.192;2022-10-31T00:43:24;100806.00;;;12.51;70.10
46756;BME280;32506;52.826;-1.192;2022-10-31T00:45:50;100807.66;;;12.52;70.47
46756;BME280;32506;52.826;-1.192;2022-10-31T00:48:16;100806.00;;;12.51;70.31
46756;BME280;32506;52.826;-1.192;2022-10-31T00:50:41;100807.03;;;12.50;70.43
46756;BME280;32506;52.826;-1.192;2022-10-31T00:53:07;100813.22;;;12.50;70.67
46756;BME280;32506;52.826;-1.192;2022-10-31T00:55:33;100806.22;;;12.49;70.54
46756;BME280;32506;52.826;-1.192;2022-10-31T00:57:58;100815.91;;;12.50;71.02
46756;BME280;32506;52.826;-1.192;2022-10-31T01:00:24;100816.94;;;12.49;70.70
46756;BME280;32506;52.826;-1.192;2022-10-31T01:02:50;100812.41;;;12.50;70.87
46756;BME280;32506;52.826;-1.192;2022-10-31T01:05:15;100810.56;;;12.50;70.88
46756;BME280;32506;52.826;-1.192;2022-10-31T01:07:41;100810.56;;;12.50;71.00
46756;BME280;32506;52.826;-1.192;2022-10-31T01:10:07;100815.06;;;12.50;70.79
46756;BME280;32506;52.826;-1.192;2022-10-31T01:12:41;100808.06;;;12.49;70.67
46756;BME280;32506;52.826;-1.192;2022-10-31T01:15:07;100816.50;;;12.52;70.69
46756;BME280;32506;52.826;-1.192;2022-10-31T01:17:33;100817.53;;;12.51;70.96
46756;BME280;32506;52.826;-1.192;2022-10-31T01:19:59;100813.00;;;12.52;71.36
46756;BME280;32506;52.826;-1.192;2022-10-31T01:22:24;100811.13;;;12.52;71.35
46756;BME280;32506;52.826;-1.192;2022-10-31T01:24:50;100812.78;;;12.53;71.31
46756;BME280;32506;52.826;-1.192;2022-10-31T01:27:15;100814.63;;;12.53;71.07
46756;BME280;32506;52.826;-1.192;2022-10-31T01:29:40;100815.47;;;12.53;70.97
46756;BME280;32506;52.826;-1.192;2022-10-31T01:32:06;100816.28;;;12.54;70.96
46756;BME280;32506;52.826;-1.192;2022-10-31T01:34:32;100818.16;;;12.53;70.81
46756;BME280;32506;52.826;-1.192;2022-10-31T01:36:57;100822.66;;;12.53;70.75
46756;BME280;32506;52.826;-1.192;2022-10-31T01:39:23;100811.94;;;12.53;70.96
46756;BME280;32506;52.826;-1.192;2022-10-31T01:41:51;100821.06;;;12.52;70.68
46756;BME280;32506;52.826;-1.192;2022-10-31T01:46:48;100815.69;;;12.52;70.96
46756;BME280;32506;52.826;-1.192;2022-10-31T01:51:57;100824.53;;;12.52;70.54
46756;BME280;32506;52.826;-1.192;2022-10-31T01:54:26;100824.53;;;12.52;70.67
46756;BME280;32506;52.826;-1.192;2022-10-31T01:56:54;100825.56;;;12.51;70.65
46756;BME280;32506;52.826;-1.192;2022-10-31T01:59:21;100825.56;;;12.51;70.67
46756;BME280;32506;52.826;-1.192;2022-10-31T02:01:49;100824.75;;;12.51;70.72
46756;BME280;32506;52.826;-1.192;2022-10-31T02:04:16;100829.31;;;12.50;70.56
46756;BME280;32506;52.826;-1.192;2022-10-31T02:06:56;100822.09;;;12.51;70.53
46756;BME280;32506;52.826;-1.192;2022-10-31T02:09:23;100822.91;;;12.51;70.51
46756;BME280;32506;52.826;-1.192;2022-10-31T02:11:56;100823.97;;;12.50;70.40
46756;BME280;32506;52.826;-1.192;2022-10-31T02:14:23;100829.31;;;12.50;70.44
46756;BME280;32506;52.826;-1.192;2022-10-31T02:16:50;100830.34;;;12.49;70.29
46756;BME280;32506;52.826;-1.192;2022-10-31T02:19:22;100822.53;;;12.48;70.14
46756;BME280;32506;52.826;-1.192;2022-10-31T02:22:29;100833.84;;;12.50;70.33
46756;BME280;32506;52.826;-1.192;2022-10-31T02:30:54;100822.53;;;12.48;70.25
46756;BME280;32506;52.826;-1.192;2022-10-31T02:33:25;100817.41;;;12.46;70.14
46756;BME280;32506;52.826;-1.192;2022-10-31T02:38:41;100826.69;;;12.44;69.97
46756;BME280;32506;52.826;-1.192;2022-10-31T02:43:57;100820.72;;;12.41;69.88
46756;BME280;32506;52.826;-1.192;2022-10-31T02:49:40;100817.22;;;12.41;69.64
46756;BME280;32506;52.826;-1.192;2022-10-31T02:52:19;100825.50;;;12.39;69.20
46756;BME280;32506;52.826;-1.192;2022-10-31T02:54:46;100816.03;;;12.37;69.31
46756;BME280;32506;52.826;-1.192;2022-10-31T02:57:13;100822.41;;;12.36;69.00
46756;BME280;32506;52.826;-1.192;2022-10-31T02:59:45;100821.56;;;12.35;69.10
46756;BME280;32506;52.826;-1.192;2022-10-31T03:02:45;100816.44;;;12.34;68.89
46756;BME280;32506;52.826;-1.192;2022-10-31T03:08:23;100826.34;;;12.33;68.65
46756;BME280;32506;52.826;-1.192;2022-10-31T03:10:57;100824.94;;;12.31;69.11
46756;BME280;32506;52.826;-1.192;2022-10-31T03:13:55;100825.97;;;12.30;68.80
46756;BME280;32506;52.826;-1.192;2022-10-31T03:16:30;100815.47;;;12.28;69.16
46756;BME280;32506;52.826;-1.192;2022-10-31T03:19:00;100818.38;;;12.27;69.11
46756;BME280;32506;52.826;-1.192;2022-10-31T03:21:31;100814.03;;;12.25;69.02
46756;BME280;32506;52.826;-1.192;2022-10-31T03:24:00;100825.59;;;12.26;69.20
46756;BME280;32506;52.826;-1.192;2022-10-31T03:26:26;100817.56;;;12.26;69.00
46756;BME280;32506;52.826;-1.192;2022-10-31T03:29:05;100819.41;;;12.25;69.02
46756;BME280;32506;52.826;-1.192;2022-10-31T03:31:46;100812.38;;;12.24;68.79
46756;BME280;32506;52.826;-1.192;2022-10-31T03:34:14;100817.97;;;12.23;68.54
46756;BME280;32506;52.826;-1.192;2022-10-31T03:36:41;100815.28;;;12.23;68.89
46756;BME280;32506;52.826;-1.192;2022-10-31T03:39:11;100809.13;;;12.22;68.76
46756;BME280;32506;52.826;-1.192;2022-10-31T03:41:41;100807.69;;;12.20;68.75
46756;BME280;32506;52.826;-1.192;2022-10-31T03:44:12;100813.06;;;12.20;68.64
46756;BME280;32506;52.826;-1.192;2022-10-31T03:46:39;100799.88;;;12.18;68.74
46756;BME280;32506;52.826;-1.192;2022-10-31T03:49:05;100803.59;;;12.17;68.65
46756;BME280;32506;52.826;-1.192;2022-10-31T03:51:44;100799.25;;;12.16;68.98
46756;BME280;32506;52.826;-1.192;2022-10-31T03:54:20;100792.06;;;12.17;68.96
46756;BME280;32506;52.826;-1.192;2022-10-31T03:56:58;100790.41;;;12.16;69.16
46756;BME280;32506;52.826;-1.192;2022-10-31T03:59:31;100792.72;;;12.12;69.11
46756;BME280;32506;52.826;-1.192;2022-10-31T04:02:02;100788.19;;;12.13;69.43
46756;BME280;32506;52.826;-1.192;2022-10-31T04:04:29;100790.03;;;12.12;69.01
46756;BME280;32506;52.826;-1.192;2022-10-31T04:06:57;100784.09;;;12.10;69.01
46756;BME280;32506;52.826;-1.192;2022-10-31T04:09:26;100798.50;;;12.09;68.96
46756;BME280;32506;52.826;-1.192;2022-10-31T04:11:54;100782.44;;;12.09;68.75
46756;BME280;32506;52.826;-1.192;2022-10-31T04:14:26;100783.47;;;12.08;68.99
46756;BME280;32506;52.826;-1.192;2022-10-31T04:16:53;100785.34;;;12.07;69.04
46756;BME280;32506;52.826;-1.192;2022-10-31T04:19:19;100791.72;;;12.06;69.08
46756;BME280;32506;52.826;-1.192;2022-10-31T04:21:44;100783.69;;;12.06;69.20
46756;BME280;32506;52.826;-1.192;2022-10-31T04:24:10;100788.44;;;12.04;69.16
46756;BME280;32506;52.826;-1.192;2022-10-31T04:26:36;100799.97;;;12.05;69.32
46756;BME280;32506;52.826;-1.192;2022-10-31T04:29:02;100801.00;;;12.04;68.95
46756;BME280;32506;52.826;-1.192;2022-10-31T04:31:27;100796.69;;;12.03;69.12
46756;BME280;32506;52.826;-1.192;2022-10-31T04:33:53;100797.72;;;12.02;69.21
46756;BME280;32506;52.826;-1.192;2022-10-31T04:36:19;100788.88;;;12.01;69.07
46756;BME280;32506;52.826;-1.192;2022-10-31T04:38:44;100778.38;;;12.00;69.49
46756;BME280;32506;52.826;-1.192;2022-10-31T04:41:10;100779.19;;;12.00;69.98
46756;BME280;32506;52.826;-1.192;2022-10-31T04:43:35;100773.81;;;12.00;69.89
46756;BME280;32506;52.826;-1.192;2022-10-31T04:46:01;100777.56;;;11.99;69.52
46756;BME280;32506;52.826;-1.192;2022-10-31T04:48:26;100781.28;;;11.98;69.44
46756;BME280;32506;52.826;-1.192;2022-10-31T04:50:52;100775.91;;;11.98;69.59
46756;BME280;32506;52.826;-1.192;2022-10-31T04:53:17;100773.25;;;11.98;69.74
46756;BME280;32506;52.826;-1.192;2022-10-31T04:55:43;100772.41;;;11.98;69.49
46756;BME280;32506;52.826;-1.192;2022-10-31T04:58:08;100767.03;;;11.98;69.76
46756;BME280;32506;52.826;-1.192;2022-10-31T05:00:33;100765.22;;;11.98;70.12
46756;BME280;32506;52.826;-1.192;2022-10-31T05:02:59;100766.22;;;11.97;70.14
46756;BME280;32506;52.826;-1.192;2022-10-31T05:05:27;100761.09;;;11.96;70.17
46756;BME280;32506;52.826;-1.192;2022-10-31T05:07:53;100761.09;;;11.96;70.37
46756;BME280;32506;52.826;-1.192;2022-10-31T05:10:24;100757.63;;;11.95;70.08
46756;BME280;32506;52.826;-1.192;2022-10-31T05:12:53;100757.63;;;11.95;69.72
46756;BME280;32506;52.826;-1.192;2022-10-31T05:15:20;100747.06;;;11.93;70.05
46756;BME280;32506;52.826;-1.192;2022-10-31T05:17:46;100747.06;;;11.93;69.65
46756;BME280;32506;52.826;-1.192;2022-10-31T05:20:13;100748.13;;;11.92;69.70
46756;BME280;32506;52.826;-1.192;2022-10-31T05:22:46;100749.16;;;11.91;69.71
46756;BME280;32506;52.826;-1.192;2022-10-31T05:25:12;100751.84;;;11.91;69.38
46756;BME280;32506;52.826;-1.192;2022-10-31T05:27:42;100742.16;;;11.90;69.52
46756;BME280;32506;52.826;-1.192;2022-10-31T05:30:10;100740.50;;;11.89;69.34
46756;BME280;32506;52.826;-1.192;2022-10-31T05:32:40;100751.44;;;11.88;69.41
46756;BME280;32506;52.826;-1.192;2022-10-31T05:35:07;100744.44;;;11.87;69.28
46756;BME280;32506;52.826;-1.192;2022-10-31T05:37:35;100740.94;;;11.86;69.36
46756;BME280;32506;52.826;-1.192;2022-10-31T05:40:02;100734.78;;;11.86;69.42
46756;BME280;32506;52.826;-1.192;2022-10-31T05:42:27;100733.94;;;11.85;69.61
46756;BME280;32506;52.826;-1.192;2022-10-31T05:44:53;100738.50;;;11.85;69.58
46756;BME280;32506;52.826;-1.192;2022-10-31T05:47:18;100733.34;;;11.83;69.52
46756;BME280;32506;52.826;-1.192;2022-10-31T05:49:44;100741.59;;;11.82;69.39
46756;BME280;32506;52.826;-1.192;2022-10-31T05:52:09;100737.28;;;11.81;69.52
46756;BME280;32506;52.826;-1.192;2022-10-31T05:54:35;100741.81;;;11.80;69.57
46756;BME280;32506;52.826;-1.192;2022-10-31T05:57:00;100747.16;;;11.80;69.41
46756;BME280;32506;52.826;-1.192;2022-10-31T05:59:25;100745.53;;;11.79;69.72
46756;BME280;32506;52.826;-1.192;2022-10-31T06:01:51;100741.22;;;11.78;69.33
46756;BME280;32506;52.826;-1.192;2022-10-31T06:04:16;100741.22;;;11.78;69.67
46756;BME280;32506;52.826;-1.192;2022-10-31T06:06:42;100735.47;;;11.74;69.38
46756;BME280;32506;52.826;-1.192;2022-10-31T06:09:07;100741.66;;;11.75;68.95
46756;BME280;32506;52.826;-1.192;2022-10-31T06:11:33;100731.97;;;11.74;68.77
46756;BME280;32506;52.826;-1.192;2022-10-31T06:13:58;100736.50;;;11.73;69.08
46756;BME280;32506;52.826;-1.192;2022-10-31T06:16:24;100732.38;;;11.71;68.92
46756;BME280;32506;52.826;-1.192;2022-10-31T06:18:49;100731.56;;;11.70;68.92
46756;BME280;32506;52.826;-1.192;2022-10-31T06:21:15;100729.72;;;11.71;68.72
46756;BME280;32506;52.826;-1.192;2022-10-31T06:23:40;100736.34;;;11.68;68.51
46756;BME280;32506;52.826;-1.192;2022-10-31T06:26:06;100734.69;;;11.67;68.85
46756;BME280;32506;52.826;-1.192;2022-10-31T06:28:31;100730.38;;;11.66;68.75
46756;BME280;32506;52.826;-1.192;2022-10-31T06:30:57;100727.91;;;11.65;68.33
46756;BME280;32506;52.826;-1.192;2022-10-31T06:33:22;100730.81;;;11.63;68.20
46756;BME280;32506;52.826;-1.192;2022-10-31T06:35:48;100721.94;;;11.63;68.52
46756;BME280;32506;52.826;-1.192;2022-10-31T06:38:14;100726.72;;;11.61;68.15
46756;BME280;32506;52.826;-1.192;2022-10-31T06:40:40;100715.38;;;11.58;68.17
46756;BME280;32506;52.826;-1.192;2022-10-31T06:43:06;100717.47;;;11.56;67.96
46756;BME280;32506;52.826;-1.192;2022-10-31T06:45:31;100716.63;;;11.56;68.13
46756;BME280;32506;52.826;-1.192;2022-10-31T06:47:57;100723.22;;;11.53;67.99
46756;BME280;32506;52.826;-1.192;2022-10-31T06:50:23;100726.13;;;11.52;68.24
46756;BME280;32506;52.826;-1.192;2022-10-31T06:52:53;100717.28;;;11.51;68.02
46756;BME280;32506;52.826;-1.192;2022-10-31T06:55:19;100712.16;;;11.50;68.33
46756;BME280;32506;52.826;-1.192;2022-10-31T06:57:55;100715.25;;;11.47;68.07
46756;BME280;32506;52.826;-1.192;2022-10-31T07:00:21;100716.09;;;11.47;68.27
46756;BME280;32506;52.826;-1.192;2022-10-31T07:03:05;100714.44;;;11.46;68.06
46756;BME280;32506;52.826;-1.192;2022-10-31T07:05:31;100718.38;;;11.44;68.12
46756;BME280;32506;52.826;-1.192;2022-10-31T07:07:58;100710.56;;;11.42;68.39
46756;BME280;32506;52.826;-1.192;2022-10-31T07:10:25;100700.88;;;11.41;68.19
46756;BME280;32506;52.826;-1.192;2022-10-31T07:12:57;100705.41;;;11.40;68.72
46756;BME280;32506;52.826;-1.192;2022-10-31T07:15:24;100700.88;;;11.41;68.55
46756;BME280;32506;52.826;-1.192;2022-10-31T07:17:50;100698.19;;;11.41;69.04
46756;BME280;32506;52.826;-1.192;2022-10-31T07:20:15;100700.06;;;11.40;68.94
46756;BME280;32506;52.826;-1.192;2022-10-31T07:22:41;100712.41;;;11.41;69.12
46756;BME280;32506;52.826;-1.192;2022-10-31T07:25:07;100710.78;;;11.40;69.20
46756;BME280;32506;52.826;-1.192;2022-10-31T07:27:40;100717.78;;;11.41;69.39
46756;BME280;32506;52.826;-1.192;2022-10-31T07:30:07;100715.09;;;11.41;69.17
46756;BME280;32506;52.826;-1.192;2022-10-31T07:32:44;100709.75;;;11.41;69.53
46756;BME280;32506;52.826;-1.192;2022-10-31T07:35:13;100708.69;;;11.42;70.09
46756;BME280;32506;52.826;-1.192;2022-10-31T07:37:38;100710.56;;;11.42;69.67
46756;BME280;32506;52.826;-1.192;2022-10-31T07:40:05;100714.88;;;11.43;69.84
46756;BME280;32506;52.826;-1.192;2022-10-31T07:42:36;100720.81;;;11.45;69.74
46756;BME280;32506;52.826;-1.192;2022-10-31T07:45:03;100721.44;;;11.47;70.08
46756;BME280;32506;52.826;-1.192;2022-10-31T07:47:28;100721.44;;;11.47;69.78
46756;BME280;32506;52.826;-1.192;2022-10-31T07:49:54;100725.53;;;11.50;69.66
46756;BME280;32506;52.826;-1.192;2022-10-31T07:52:19;100731.50;;;11.52;69.57
46756;BME280;32506;52.826;-1.192;2022-10-31T07:54:45;100729.66;;;11.52;69.58
46756;BME280;32506;52.826;-1.192;2022-10-31T07:57:11;100729.22;;;11.55;69.35
46756;BME280;32506;52.826;-1.192;2022-10-31T07:59:36;100723.63;;;11.57;69.45
46756;BME280;32506;52.826;-1.192;2022-10-31T08:02:01;100725.28;;;11.58;69.57
46756;BME280;32506;52.826;-1.192;2022-10-31T08:04:27;100732.06;;;11.61;69.26
46756;BME280;32506;52.826;-1.192;2022-10-31T08:06:52;100733.72;;;11.62;69.37
46756;BME280;32506;52.826;-1.192;2022-10-31T08:09:19;100736.97;;;11.64;69.38
46756;BME280;32506;52.826;-1.192;2022-10-31T08:11:44;100736.53;;;11.67;69.14
46756;BME280;32506;52.826;-1.192;2022-10-31T08:14:10;100741.69;;;11.68;68.90
46756;BME280;32506;52.826;-1.192;2022-10-31T08:16:35;100743.09;;;11.71;68.94
46756;BME280;32506;52.826;-1.192;2022-10-31T08:19:00;100736.50;;;11.73;68.57
46756;BME280;32506;52.826;-1.192;2022-10-31T08:21:26;100738.75;;;11.77;68.85
46756;BME280;32506;52.826;-1.192;2022-10-31T08:23:51;100731.09;;;11.80;68.61
46756;BME280;32506;52.826;-1.192;2022-10-31T08:26:17;100733.34;;;11.83;68.76
46756;BME280;32506;52.826;-1.192;2022-10-31T08:28:42;100741.56;;;11.88;68.65
46756;BME280;32506;52.826;-1.192;2022-10-31T08:31:07;100737.41;;;11.92;69.21
46756;BME280;32506;52.826;-1.192;2022-10-31T08:33:34;100738.63;;;11.97;69.24
46756;BME280;32506;52.826;-1.192;2022-10-31T08:36:00;100739.63;;;12.02;69.84
46756;BME280;32506;52.826;-1.192;2022-10-31T08:38:25;100729.06;;;12.07;69.79
46756;BME280;32506;52.826;-1.192;2022-10-31T08:40:51;100723.88;;;12.13;69.91
46756;BME280;32506;52.826;-1.192;2022-10-31T08:43:17;100731.88;;;12.19;70.61
46756;BME280;32506;52.826;-1.192;2022-10-31T08:45:44;100739.84;;;12.26;70.87
46756;BME280;32506;52.826;-1.192;2022-10-31T08:48:12;100736.28;;;12.32;70.99
46756;BME280;32506;52.826;-1.192;2022-10-31T08:50:38;100745.28;;;12.38;71.10
46756;BME280;32506;52.826;-1.192;2022-10-31T08:53:12;100740.91;;;12.44;71.18
46756;BME280;32506;52.826;-1.192;2022-10-31T08:55:40;100744.78;;;12.48;71.08
46756;BME280;32506;52.826;-1.192;2022-10-31T08:58:09;100740.63;;;12.52;71.00
46756;BME280;32506;52.826;-1.192;2022-10-31T09:00:35;100732.94;;;12.55;71.03
46756;BME280;32506;52.826;-1.192;2022-10-31T09:03:02;100737.88;;;12.58;70.72
46756;BME280;32506;52.826;-1.192;2022-10-31T09:05:29;100741.97;;;12.61;70.88
46756;BME280;32506;52.826;-1.192;2022-10-31T09:07:58;100733.47;;;12.64;70.70
46756;BME280;32506;52.826;-1.192;2022-10-31T09:10:25;100744.59;;;12.68;70.71
46756;BME280;32506;52.826;-1.192;2022-10-31T09:12:58;100737.97;;;12.70;70.50
46756;BME280;32506;52.826;-1.192;2022-10-31T09:15:25;100735.06;;;12.72;70.67
46756;BME280;32506;52.826;-1.192;2022-10-31T09:17:50;100734.59;;;12.75;70.81
46756;BME280;32506;52.826;-1.192;2022-10-31T09:20:16;100722.84;;;12.76;70.64
46756;BME280;32506;52.826;-1.192;2022-10-31T09:22:41;100719.69;;;12.79;70.53
46756;BME280;32506;52.826;-1.192;2022-10-31T09:25:08;100723.56;;;12.83;70.57
46756;BME280;32506;52.826;-1.192;2022-10-31T09:27:33;100712.63;;;12.85;70.56
46756;BME280;32506;52.826;-1.192;2022-10-31T09:29:59;100716.47;;;12.89;70.74
46756;BME280;32506;52.826;-1.192;2022-10-31T09:32:24;100714.41;;;12.91;70.64
46756;BME280;32506;52.826;-1.192;2022-10-31T09:34:49;100711.28;;;12.94;70.55
46756;BME280;32506;52.826;-1.192;2022-10-31T09:37:15;100710.59;;;12.99;70.88
46756;BME280;32506;52.826;-1.192;2022-10-31T09:39:41;100703.97;;;13.01;70.81
46756;BME280;32506;52.826;-1.192;2022-10-31T09:50:25;100705.56;;;13.21;71.06
46756;BME280;32506;52.826;-1.192;2022-10-31T09:55:33;100707.69;;;13.31;71.46
46756;BME280;32506;52.826;-1.192;2022-10-31T09:58:01;100713.44;;;13.34;71.61
46756;BME280;32506;52.826;-1.192;2022-10-31T10:00:27;100713.00;;;13.37;71.72
46756;BME280;32506;52.826;-1.192;2022-10-31T10:05:51;100703.34;;;13.48;71.68
46756;BME280;32506;52.826;-1.192;2022-10-31T10:08:20;100703.72;;;13.52;71.74
46756;BME280;32506;52.826;-1.192;2022-10-31T10:16:47;100703.50;;;13.65;71.35
46756;BME280;32506;52.826;-1.192;2022-10-31T10:22:19;100691.38;;;13.74;71.56
46756;BME280;32506;52.826;-1.192;2022-10-31T10:30:34;100689.19;;;13.95;72.04
46756;BME280;32506;52.826;-1.192;2022-10-31T10:33:08;100683.50;;;14.03;71.89
46756;BME280;32506;52.826;-1.192;2022-10-31T10:36:01;100677.75;;;14.12;71.84
46756;BME280;32506;52.826;-1.192;2022-10-31T10:38:38;100672.84;;;14.20;71.84
46756;BME280;32506;52.826;-1.192;2022-10-31T10:41:22;100667.94;;;14.29;72.02
46756;BME280;32506;52.826;-1.192;2022-10-31T10:43:51;100669.66;;;14.35;71.77
46756;BME280;32506;52.826;-1.192;2022-10-31T10:49:43;100652.81;;;14.52;71.67
46756;BME280;32506;52.826;-1.192;2022-10-31T10:54:45;100653.41;;;14.66;70.64
46756;BME280;32506;52.826;-1.192;2022-10-31T10:57:40;100653.59;;;14.76;70.03
46756;BME280;32506;52.826;-1.192;2022-10-31T11:00:20;100649.50;;;14.85;70.06
46756;BME280;32506;52.826;-1.192;2022-10-31T11:02:46;100647.56;;;14.98;69.79
46756;BME280;32506;52.826;-1.192;2022-10-31T11:05:50;100641.88;;;15.11;69.40
46756;BME280;32506;52.826;-1.192;2022-10-31T11:08:33;100640.69;;;15.19;69.36
46756;BME280;32506;52.826;-1.192;2022-10-31T11:13:48;100650.81;;;15.46;68.58
46756;BME280;32506;52.826;-1.192;2022-10-31T11:16:30;100639.31;;;15.50;67.99
46756;BME280;32506;52.826;-1.192;2022-10-31T11:19:07;100632.38;;;15.54;68.07
46756;BME280;32506;52.826;-1.192;2022-10-31T11:21:33;100631.09;;;15.57;68.29
46756;BME280;32506;52.826;-1.192;2022-10-31T11:24:03;100635.97;;;15.60;67.50
46756;BME280;32506;52.826;-1.192;2022-10-31T11:26:29;100629.28;;;15.63;67.49
46756;BME280;32506;52.826;-1.192;2022-10-31T11:28:59;100628.56;;;15.67;67.73
46756;BME280;32506;52.826;-1.192;2022-10-31T11:31:25;100624.88;;;15.73;67.96
46756;BME280;32506;52.826;-1.192;2022-10-31T11:34:00;100616.97;;;15.84;68.02
46756;BME280;32506;52.826;-1.192;2022-10-31T11:36:29;100619.25;;;15.92;68.04
46756;BME280;32506;52.826;-1.192;2022-10-31T11:38:55;100608.28;;;15.99;67.87
46756;BME280;32506;52.826;-1.192;2022-10-31T11:41:32;100614.31;;;16.06;68.03
46756;BME280;32506;52.826;-1.192;2022-10-31T11:44:37;100602.53;;;16.12;67.92
46756;BME280;32506;52.826;-1.192;2022-10-31T11:47:13;100591.25;;;16.15;68.02
46756;BME280;32506;52.826;-1.192;2022-10-31T11:49:42;100586.19;;;16.19;67.89
46756;BME280;32506;52.826;-1.192;2022-10-31T11:52:16;100591.06;;;16.22;68.04
46756;BME280;32506;52.826;-1.192;2022-10-31T11:59:53;100579.28;;;16.28;67.94
46756;BME280;32506;52.826;-1.192;2022-10-31T12:02:20;100570.94;;;16.30;67.65
46756;BME280;32506;52.826;-1.192;2022-10-31T12:05:17;100566.94;;;16.32;67.70
46756;BME280;32506;52.826;-1.192;2022-10-31T12:07:37;100561.28;;;16.34;67.61
46756;BME280;32506;52.826;-1.192;2022-10-31T12:10:10;100562.09;;;16.34;67.65
46756;BME280;32506;52.826;-1.192;2022-10-31T12:15:30;100543.78;;;16.36;67.46
46756;BME280;32506;52.826;-1.192;2022-10-31T12:23:45;100536.28;;;16.38;67.54
46756;BME280;32506;52.826;-1.192;2022-10-31T12:29:21;100526.59;;;16.42;67.44
46756;BME280;32506;52.826;-1.192;2022-10-31T12:43:35;100495.56;;;16.67;67.10
46756;BME280;32506;52.826;-1.192;2022-10-31T12:46:12;100491.84;;;16.73;67.35
46756;BME280;32506;52.826;-1.192;2022-10-31T12:48:57;100485.31;;;16.97;67.29
46756;BME280;32506;52.826;-1.192;2022-10-31T12:54:31;100466.88;;;18.58;65.02
46756;BME280;32506;52.826;-1.192;2022-10-31T12:59:54;100459.63;;;20.46;61.55
46756;BME280;32506;52.826;-1.192;2022-10-31T13:02:30;100445.84;;;20.77;61.16
46756;BME280;32506;52.826;-1.192;2022-10-31T13:07:37;100444.75;;;21.07;61.08
46756;BME280;32506;52.826;-1.192;2022-10-31T13:10:15;100431.34;;;21.40;60.23
46756;BME280;32506;52.826;-1.192;2022-10-31T13:12:42;100426.03;;;21.59;59.81
46756;BME280;32506;52.826;-1.192;2022-10-31T13:17:47;100424.38;;;21.34;60.27
46756;BME280;32506;52.826;-1.192;2022-10-31T13:20:27;100417.47;;;21.18;61.11
46756;BME280;32506;52.826;-1.192;2022-10-31T13:22:58;100406.78;;;21.02;60.80
46756;BME280;32506;52.826;-1.192;2022-10-31T13:25:33;100403.94;;;20.88;60.96
46756;BME280;32506;52.826;-1.192;2022-10-31T13:28:09;100392.06;;;20.79;61.29
46756;BME280;32506;52.826;-1.192;2022-10-31T13:30:40;100386.13;;;20.72;61.77
46756;BME280;32506;52.826;-1.192;2022-10-31T13:36:06;100382.94;;;20.65;61.11
46756;BME280;32506;52.826;-1.192;2022-10-31T13:38:48;100381.34;;;20.58;61.54
46756;BME280;32506;52.826;-1.192;2022-10-31T13:44:00;100373.81;;;20.50;60.47
46756;BME280;32506;52.826;-1.192;2022-10-31T13:48:58;100368.72;;;20.78;60.41
46756;BME280;32506;52.826;-1.192;2022-10-31T13:51:28;100369.19;;;20.85;59.02
46756;BME280;32506;52.826;-1.192;2022-10-31T13:56:29;100361.28;;;21.13;58.98
46756;BME280;32506;52.826;-1.192;2022-10-31T14:01:24;100347.47;;;21.09;59.09
46756;BME280;32506;52.826;-1.192;2022-10-31T14:04:03;100347.31;;;21.01;58.96
46756;BME280;32506;52.826;-1.192;2022-10-31T14:09:20;100343.94;;;20.85;59.42
46756;BME280;32506;52.826;-1.192;2022-10-31T14:11:47;100338.78;;;20.83;59.95
46756;BME280;32506;52.826;-1.192;2022-10-31T14:14:14;100331.50;;;20.78;59.73
46756;BME280;32506;52.826;-1.192;2022-10-31T14:16:43;100327.53;;;20.71;58.85
46756;BME280;32506;52.826;-1.192;2022-10-31T14:19:18;100316.69;;;20.66;58.97
46756;BME280;32506;52.826;-1.192;2022-10-31T14:21:46;100316.44;;;20.62;59.36
46756;BME280;32506;52.826;-1.192;2022-10-31T14:26:56;100308.66;;;20.50;59.70
46756;BME280;32506;52.826;-1.192;2022-10-31T14:29:29;100312.81;;;20.42;59.36
46756;BME280;32506;52.826;-1.192;2022-10-31T14:34:34;100305.59;;;20.27;58.40
46756;BME280;32506;52.826;-1.192;2022-10-31T14:42:40;100287.09;;;20.05;57.18
46756;BME280;32506;52.826;-1.192;2022-10-31T14:50:56;100274.69;;;19.94;57.00
46756;BME280;32506;52.826;-1.192;2022-10-31T14:53:31;100268.22;;;19.90;56.82
46756;BME280;32506;52.826;-1.192;2022-10-31T14:55:59;100265.78;;;19.88;56.86
46756;BME280;32506;52.826;-1.192;2022-10-31T14:58:36;100264.16;;;19.87;57.20
46756;BME280;32506;52.826;-1.192;2022-10-31T15:01:03;100260.66;;;19.87;56.92
46756;BME280;32506;52.826;-1.192;2022-10-31T15:03:37;100256.31;;;19.86;56.87